createdAt,value
2023-05-06T00:00:14.226Z,77.59
2023-05-06T00:01:14.281Z,77.52
2023-05-06T00:02:14.603Z,77.61
2023-05-06T00:03:15.023Z,77.69
2023-05-06T00:04:15.258Z,77.61
2023-05-06T00:05:16.055Z,77.6
2023-05-06T00:06:16.175Z,77.55
2023-05-06T00:07:16.584Z,77.47
2023-05-06T00:08:16.998Z,77.07
2023-05-06T00:09:17.402Z,77.3
2023-05-06T00:10:17.832Z,77.06
2023-05-06T00:11:18.199Z,77.14
2023-05-06T00:12:18.667Z,75.99
2023-05-06T00:13:19.022Z,74.62
2023-05-06T00:14:19.389Z,75.07
2023-05-06T00:15:19.904Z,74.07
2023-05-06T00:16:20.099Z,73.9
2023-05-06T00:17:20.640Z,73.79
2023-05-06T00:18:20.951Z,74.47
2023-05-06T00:19:21.485Z,74.87
2023-05-06T00:20:22.036Z,75.73
2023-05-06T00:21:22.215Z,74.71
2023-05-06T00:22:22.614Z,75.55
2023-05-06T00:23:23.039Z,76.19
2023-05-06T00:24:23.443Z,76.48
2023-05-06T00:25:23.904Z,76.89
2023-05-06T00:26:24.229Z,76.65
2023-05-06T00:27:24.825Z,76.48
2023-05-06T00:28:25.118Z,76.9
2023-05-06T00:29:25.521Z,77.2
2023-05-06T00:30:26.460Z,77.52
2023-05-06T00:31:26.271Z,77.73
2023-05-06T00:32:26.696Z,77.58
2023-05-06T00:33:26.982Z,77.78
2023-05-06T00:34:27.500Z,77.62
2023-05-06T00:35:27.911Z,78.03
2023-05-06T00:36:28.245Z,77.84
2023-05-06T00:37:28.870Z,78.46
2023-05-06T00:38:29.068Z,78.94
2023-05-06T00:39:30.425Z,79.19
2023-05-06T00:40:29.804Z,78.79
2023-05-06T00:41:33.712Z,78.99
2023-05-06T00:42:31.362Z,79.25
2023-05-06T00:43:31.567Z,79.64
2023-05-06T00:44:32.094Z,79.63
2023-05-06T00:45:32.827Z,79.13
2023-05-06T00:46:33.376Z,78.99
2023-05-06T00:47:33.823Z,78.94
2023-05-06T00:48:33.753Z,78.8
2023-05-06T00:49:34.572Z,78.77
2023-05-06T00:50:35.733Z,78.79
2023-05-06T00:51:35.285Z,79.11
2023-05-06T00:52:35.430Z,79.01
2023-05-06T00:53:36.331Z,79.04
2023-05-06T00:54:36.647Z,79.05
2023-05-06T00:55:38.063Z,79.12
2023-05-06T00:56:37.582Z,78.98
2023-05-06T00:57:39.746Z,78.44
2023-05-06T00:58:38.620Z,78.11
2023-05-06T00:59:38.726Z,77.66
2023-05-06T01:00:39.187Z,77.58
2023-05-06T01:01:40.328Z,77.72
2023-05-06T01:02:47.010Z,77.49
2023-05-06T01:03:40.524Z,77.53
2023-05-06T01:04:41.362Z,77.63
2023-05-06T01:05:53.119Z,77.4
2023-05-06T01:06:53.531Z,77.42
2023-05-06T01:14:10.137Z,78.79
2023-05-06T01:15:10.315Z,79.19
2023-05-06T01:16:06.786Z,79.15
2023-05-06T01:17:07.217Z,78.79
2023-05-06T01:18:10.296Z,78.52
2023-05-06T01:19:13.524Z,78.26
2023-05-06T01:20:12.868Z,78.06
2023-05-06T01:21:12.069Z,77.77
2023-05-06T01:22:13.177Z,77.46
2023-05-06T01:23:13.194Z,77.4
2023-05-06T01:24:12.691Z,77.48
2023-05-06T01:25:22.985Z,77.46
2023-05-06T01:26:15.560Z,77.13
2023-05-06T01:27:15.993Z,77.15
2023-05-06T01:28:16.340Z,77.07
2023-05-06T01:29:16.833Z,76.98
2023-05-06T01:30:19.764Z,76.82
2023-05-06T01:39:41.775Z,78.62
2023-05-06T01:40:42.801Z,78.91
2023-05-06T01:41:41.263Z,79.08
2023-05-06T01:42:41.886Z,79.1
2023-05-06T01:43:43.836Z,79.22
2023-05-06T01:44:44.089Z,79.11
2023-05-06T01:45:43.752Z,78.86
2023-05-06T01:46:44.368Z,78.71
2023-05-06T01:47:45.126Z,78.77
2023-05-06T01:48:45.401Z,78.6
2023-05-06T01:49:45.016Z,78.6
2023-05-06T01:50:44.696Z,78.46
2023-05-06T01:53:48.208Z,78.51
2023-05-06T01:54:48.746Z,78.23
2023-05-06T01:55:49.062Z,78.68
2023-05-06T01:56:49.303Z,78.81
2023-05-06T01:57:49.886Z,78.62
2023-05-06T01:58:50.484Z,78.8
2023-05-06T01:59:50.797Z,78.82
2023-05-06T02:00:51.009Z,79.2
2023-05-06T02:01:51.367Z,79.32
2023-05-06T02:02:52.085Z,79.41
2023-05-06T02:03:52.494Z,79.46
2023-05-06T02:04:53.729Z,79.47
2023-05-06T02:05:52.988Z,79.69
2023-05-06T02:06:53.426Z,79.74
2023-05-06T02:07:53.829Z,79.65
2023-05-06T02:08:54.351Z,79.72
2023-05-06T02:09:54.655Z,80.19
2023-05-06T02:10:55.089Z,80.48
2023-05-06T02:11:55.292Z,80.73
2023-05-06T02:12:55.836Z,80.76
2023-05-06T02:13:56.227Z,80.38
2023-05-06T02:14:56.602Z,80.42
2023-05-06T02:15:56.876Z,80.56
2023-05-06T02:16:57.277Z,80.2
2023-05-06T02:17:57.938Z,80.04
2023-05-06T02:18:58.213Z,79.93
2023-05-06T02:19:59.329Z,79.91
2023-05-06T02:20:59.029Z,80.08
2023-05-06T02:21:59.337Z,79.81
2023-05-06T02:22:59.776Z,79.79
2023-05-06T02:24:00.187Z,80.01
2023-05-06T02:25:00.483Z,80.16
2023-05-06T02:26:00.810Z,80.48
2023-05-06T02:27:01.325Z,80.43
2023-05-06T02:28:01.753Z,80.87
2023-05-06T02:29:02.270Z,81.06
2023-05-06T02:30:03.417Z,81.52
2023-05-06T02:31:02.887Z,81.84
2023-05-06T02:32:03.712Z,81.93
2023-05-06T02:33:04.040Z,82.18
2023-05-06T02:34:05.203Z,82.19
2023-05-06T02:35:05.236Z,82.3
2023-05-06T02:36:05.428Z,82.06
2023-05-06T02:37:05.294Z,82.15
2023-05-06T02:38:05.612Z,82.14
2023-05-06T02:39:06.026Z,82.17
2023-05-06T02:40:07.667Z,82.33
2023-05-06T02:41:06.849Z,82.48
2023-05-06T02:42:07.263Z,82.55
2023-05-06T02:43:07.777Z,82.66
2023-05-06T02:44:08.221Z,82.84
2023-05-06T02:45:09.416Z,82.73
2023-05-06T02:46:08.853Z,82.68
2023-05-06T02:47:09.378Z,82.57
2023-05-06T02:48:09.555Z,82.49
2023-05-06T02:49:10.170Z,82.45
2023-05-06T02:50:11.210Z,82.91
2023-05-06T02:51:10.894Z,82.84
2023-05-06T02:52:11.212Z,82.54
2023-05-06T02:53:12.250Z,82.43
2023-05-06T02:54:12.824Z,82.5
2023-05-06T02:55:13.091Z,82.49
2023-05-06T02:56:13.608Z,82.36
2023-05-06T02:57:14.108Z,82.36
2023-05-06T02:58:14.427Z,82.35
2023-05-06T02:59:14.872Z,82.38
2023-05-06T03:00:15.682Z,82.46
2023-05-06T03:01:15.598Z,82.59
2023-05-06T03:02:15.953Z,82.79
2023-05-06T03:03:16.888Z,82.79
2023-05-06T03:04:16.709Z,82.99
2023-05-06T03:05:17.138Z,83.15
2023-05-06T03:06:17.301Z,83.23
2023-05-06T03:07:17.774Z,83.22
2023-05-06T03:08:18.280Z,83.19
2023-05-06T03:09:18.691Z,83.17
2023-05-06T03:10:19.272Z,82.9
2023-05-06T03:11:19.337Z,82.51
2023-05-06T03:12:19.743Z,82.27
2023-05-06T03:13:20.495Z,82.19
2023-05-06T03:14:20.688Z,82.06
2023-05-06T03:15:21.749Z,81.88
2023-05-06T03:16:21.976Z,81.99
2023-05-06T03:17:22.652Z,82.24
2023-05-06T03:18:22.957Z,82.6
2023-05-06T03:19:23.370Z,82.85
2023-05-06T03:20:23.796Z,83.15
2023-05-06T03:21:24.131Z,83.2
2023-05-06T03:22:24.485Z,83.19
2023-05-06T03:23:24.711Z,83.13
2023-05-06T03:24:25.310Z,82.72
2023-05-06T03:25:25.667Z,82.47
2023-05-06T03:26:26.039Z,82.41
2023-05-06T03:27:26.432Z,82.48
2023-05-06T03:28:26.911Z,82.95
2023-05-06T03:29:27.351Z,82.86
2023-05-06T03:30:27.749Z,82.68
2023-05-06T03:31:28.178Z,82.52
2023-05-06T03:32:28.641Z,82.36
2023-05-06T03:33:28.889Z,82.42
2023-05-06T03:34:29.417Z,82.72
2023-05-06T03:35:29.823Z,82.82
2023-05-06T03:36:30.053Z,82.9
2023-05-06T03:37:30.315Z,82.99
2023-05-06T03:38:30.685Z,83.13
2023-05-06T03:39:31.397Z,83.29
2023-05-06T03:40:31.625Z,83.25
2023-05-06T03:41:32.133Z,83.12
2023-05-06T03:42:32.430Z,83.13
2023-05-06T03:43:33.166Z,83.08
2023-05-06T03:44:33.272Z,83.07
2023-05-06T03:45:33.481Z,83.13
2023-05-06T03:46:34.183Z,83.19
2023-05-06T03:47:34.561Z,83.37
2023-05-06T03:48:34.843Z,83.33
2023-05-06T03:49:35.356Z,83.29
2023-05-06T03:50:35.897Z,83.36
2023-05-06T03:51:36.078Z,83.14
2023-05-06T03:52:36.530Z,82.76
2023-05-06T03:53:36.821Z,82.48
2023-05-06T03:54:37.233Z,82.65
2023-05-06T03:55:37.541Z,82.91
2023-05-06T03:56:37.921Z,82.77
2023-05-06T03:57:38.888Z,82.64
2023-05-06T03:58:38.686Z,82.64
2023-05-06T03:59:39.765Z,82.6
2023-05-06T04:00:40.247Z,82.24
2023-05-06T04:01:40.681Z,82.31
2023-05-06T04:02:41.153Z,82.04
2023-05-06T04:03:41.378Z,81.91
2023-05-06T04:04:42.011Z,82.28
2023-05-06T04:05:42.210Z,82.27
2023-05-06T04:06:42.521Z,82.06
2023-05-06T04:07:43.055Z,81.88
2023-05-06T04:08:43.357Z,81.76
2023-05-06T04:09:43.882Z,81.71
2023-05-06T04:10:44.493Z,81.7
2023-05-06T04:11:44.724Z,81.43
2023-05-06T04:12:44.975Z,81.25
2023-05-06T04:13:45.349Z,81.11
2023-05-06T04:14:46.584Z,80.98
2023-05-06T04:15:46.901Z,80.99
2023-05-06T04:16:47.279Z,81.17
2023-05-06T04:17:47.773Z,81.01
2023-05-06T04:18:48.049Z,81.11
2023-05-06T04:19:48.668Z,81.17
2023-05-06T04:20:48.865Z,81.22
2023-05-06T04:21:49.388Z,81.15
2023-05-06T04:22:49.700Z,81.1
2023-05-06T04:23:50.216Z,81.02
2023-05-06T04:24:50.627Z,80.99
2023-05-06T04:25:50.925Z,80.76
2023-05-06T04:26:51.366Z,80.76
2023-05-06T04:27:51.666Z,80.7
2023-05-06T04:28:51.954Z,80.99
2023-05-06T04:29:52.708Z,80.76
2023-05-06T04:30:52.936Z,80.72
2023-05-06T04:31:53.408Z,80.74
2023-05-06T04:32:53.796Z,80.63
2023-05-06T04:33:54.093Z,80.39
2023-05-06T04:34:54.544Z,80.35
2023-05-06T04:35:55.534Z,80.53
2023-05-06T04:36:56.259Z,80.47
2023-05-06T04:37:56.570Z,80.18
2023-05-06T04:38:57.099Z,80.32
2023-05-06T04:39:57.600Z,80.33
2023-05-06T04:40:57.909Z,80.44
2023-05-06T04:41:58.241Z,80.53
2023-05-06T04:42:58.584Z,80.42
2023-05-06T04:43:58.989Z,80.38
2023-05-06T04:44:59.461Z,80.13
2023-05-06T04:45:59.870Z,80.12
2023-05-06T04:47:00.121Z,80.08
2023-05-06T04:48:00.869Z,80.25
2023-05-06T04:49:01.134Z,80
2023-05-06T04:50:01.341Z,79.91
2023-05-06T04:51:02.275Z,79.73
2023-05-06T04:52:02.197Z,78.55
2023-05-06T04:53:02.497Z,78.16
2023-05-06T04:54:03.266Z,77.44
2023-05-06T04:55:04.175Z,77.04
2023-05-06T04:56:03.989Z,76.84
2023-05-06T04:57:04.766Z,76.81
2023-05-06T04:58:04.789Z,77.88
2023-05-06T04:59:05.112Z,77.48
2023-05-06T05:00:07.372Z,76.85
2023-05-06T05:01:09.721Z,76.49
2023-05-06T05:02:06.997Z,76.05
2023-05-06T05:03:07.574Z,76.43
2023-05-06T05:04:07.893Z,77.38
2023-05-06T05:05:09.024Z,77.23
2023-05-06T05:06:08.758Z,77
2023-05-06T05:07:09.271Z,77.01
2023-05-06T05:08:09.973Z,75.56
2023-05-06T05:09:09.973Z,74.32
2023-05-06T05:10:10.798Z,74
2023-05-06T05:11:10.728Z,72.82
2023-05-06T05:12:11.134Z,72.62
2023-05-06T05:13:11.517Z,71.64
2023-05-06T05:14:11.650Z,71.46
2023-05-06T05:15:12.737Z,72.16
2023-05-06T05:16:12.376Z,72.52
2023-05-06T05:17:12.505Z,72.81
2023-05-06T05:18:13.014Z,72.8
2023-05-06T05:19:13.221Z,72.57
2023-05-06T05:20:13.621Z,71.92
2023-05-06T05:21:13.945Z,71.11
2023-05-06T05:22:14.172Z,70.86
2023-05-06T05:23:14.663Z,70.74
2023-05-06T05:24:14.898Z,70.58
2023-05-06T05:25:15.415Z,71.05
2023-05-06T05:26:15.536Z,71.48
2023-05-06T05:27:15.827Z,71.18
2023-05-06T05:28:16.334Z,70.35
2023-05-06T05:29:16.669Z,70.13
2023-05-06T05:30:17.496Z,69.29
2023-05-06T05:31:17.380Z,68.96
2023-05-06T05:32:17.618Z,68.34
2023-05-06T05:33:18.013Z,68.25
2023-05-06T05:34:18.126Z,68.88
2023-05-06T05:35:18.561Z,67.21
2023-05-06T05:36:19.168Z,66.78
2023-05-06T05:37:19.570Z,66.13
2023-05-06T05:38:19.483Z,66.33
2023-05-06T05:39:19.915Z,66.01
2023-05-06T05:40:20.335Z,64.79
2023-05-06T05:41:20.532Z,64.06
2023-05-06T05:42:20.833Z,63.9
2023-05-06T05:43:21.281Z,64.18
2023-05-06T05:44:21.689Z,64.26
2023-05-06T05:45:21.893Z,64.03
2023-05-06T05:46:22.109Z,63.03
2023-05-06T05:47:22.566Z,63.24
2023-05-06T05:48:23.033Z,62.17
2023-05-06T05:49:23.257Z,62.11
2023-05-06T05:50:23.878Z,62.52
2023-05-06T05:51:24.993Z,60.11
2023-05-06T05:52:24.180Z,59.93
2023-05-06T05:53:24.603Z,59.72
2023-05-06T05:54:24.799Z,59.9
2023-05-06T05:55:25.335Z,58.38
2023-05-06T05:56:26.037Z,59.22
2023-05-06T05:57:25.804Z,59.08
2023-05-06T05:58:26.289Z,59.22
2023-05-06T05:59:27.398Z,59.72
2023-05-06T06:00:27.610Z,60.09
2023-05-06T06:01:27.211Z,58.18
2023-05-06T06:02:27.548Z,58.37
2023-05-06T06:03:28.218Z,56.8
2023-05-06T06:04:28.422Z,57.01
2023-05-06T06:05:28.682Z,56.96
2023-05-06T06:06:29.180Z,55.86
2023-05-06T06:07:29.308Z,54.74
2023-05-06T06:08:29.850Z,55.05
2023-05-06T06:09:30.158Z,54.91
2023-05-06T06:10:30.568Z,54.86
2023-05-06T06:11:30.757Z,54.91
2023-05-06T06:12:31.292Z,54.93
2023-05-06T06:13:32.037Z,55.96
2023-05-06T06:14:31.807Z,55.18
2023-05-06T06:15:32.208Z,56.12
2023-05-06T06:16:32.566Z,56.21
2023-05-06T06:17:32.851Z,54.83
2023-05-06T06:18:33.053Z,55.34
2023-05-06T06:19:33.483Z,53.98
2023-05-06T06:20:34.016Z,55.12
2023-05-06T06:21:34.092Z,53.7
2023-05-06T06:22:34.520Z,54.59
2023-05-06T06:23:34.947Z,54.17
2023-05-06T06:24:35.358Z,53.55
2023-05-06T06:25:35.766Z,53.34
2023-05-06T06:26:36.006Z,53.74
2023-05-06T06:27:36.301Z,53.67
2023-05-06T06:28:37.426Z,53.96
2023-05-06T06:29:37.040Z,53.84
2023-05-06T06:30:37.350Z,54.54
2023-05-06T06:31:40.300Z,53.7
2023-05-06T06:33:40.836Z,54.71
2023-05-06T06:34:40.786Z,52.89
2023-05-06T06:35:41.251Z,52.38
2023-05-06T06:36:41.483Z,52.54
2023-05-06T06:37:41.910Z,53.03
2023-05-06T06:38:42.178Z,52.35
2023-05-06T06:39:42.570Z,52.7
2023-05-06T06:40:43.133Z,51.3
2023-05-06T06:41:43.341Z,52.41
2023-05-06T06:42:43.780Z,52.63
2023-05-06T06:43:44.166Z,54.93
2023-05-06T06:44:44.331Z,52.86
2023-05-06T06:45:47.848Z,53.33
2023-05-06T06:46:45.430Z,52.56
2023-05-06T06:47:45.739Z,51.01
2023-05-06T06:48:46.007Z,51.45
2023-05-06T06:49:46.485Z,51.58
2023-05-06T06:50:46.693Z,50.72
2023-05-06T06:51:47.920Z,50.32
2023-05-06T06:52:47.543Z,50.83
2023-05-06T06:53:47.726Z,50.39
2023-05-06T06:54:48.244Z,49.65
2023-05-06T06:55:48.553Z,49.47
2023-05-06T06:56:48.890Z,50.58
2023-05-06T06:57:49.292Z,50.49
2023-05-06T06:58:50.769Z,50.21
2023-05-06T06:59:50.021Z,50.96
2023-05-06T07:00:50.412Z,50.64
2023-05-06T07:01:52.181Z,50.44
2023-05-06T07:02:51.073Z,50.67
2023-05-06T07:03:51.298Z,51.25
2023-05-06T07:04:51.743Z,51.06
2023-05-06T07:05:51.897Z,50.8
2023-05-06T07:06:52.338Z,51.07
2023-05-06T07:07:52.863Z,51.58
2023-05-06T07:08:52.939Z,51.38
2023-05-06T07:09:53.380Z,52.01
2023-05-06T07:10:53.809Z,51.35
2023-05-06T07:11:54.096Z,51.9
2023-05-06T07:12:54.589Z,51.75
2023-05-06T07:13:54.791Z,51.68
2023-05-06T07:14:55.243Z,50.05
2023-05-06T07:15:55.549Z,50.23
2023-05-06T07:16:55.896Z,51.18
2023-05-06T07:17:56.166Z,50.35
2023-05-06T07:18:56.571Z,51.62
2023-05-06T07:19:56.909Z,51.65
2023-05-06T07:20:57.220Z,49.71
2023-05-06T07:21:57.752Z,49.55
2023-05-06T07:22:58.083Z,49.82
2023-05-06T07:23:59.140Z,48.8
2023-05-06T07:24:58.683Z,49.12
2023-05-06T07:25:59.206Z,49.33
2023-05-06T07:27:00.644Z,49.35
2023-05-06T07:27:59.617Z,49.15
2023-05-06T07:28:59.989Z,46.73
2023-05-06T07:30:00.686Z,47.84
2023-05-06T07:31:00.864Z,46.62
2023-05-06T07:32:01.183Z,47.46
2023-05-06T07:33:01.661Z,45.33
2023-05-06T07:34:01.918Z,45.76
2023-05-06T07:35:02.343Z,45.78
2023-05-06T07:36:02.542Z,46.26
2023-05-06T07:40:14.846Z,45.32
2023-05-06T07:41:15.181Z,46.1
2023-05-06T07:42:15.481Z,45.13
2023-05-06T07:43:15.953Z,46.44
2023-05-06T07:44:16.199Z,46.88
2023-05-06T07:45:16.746Z,45.44
2023-05-06T07:46:17.141Z,45.36
2023-05-06T07:48:19.950Z,45.39
2023-05-06T07:49:19.378Z,46
2023-05-06T07:50:19.957Z,44.88
2023-05-06T07:51:20.198Z,44.48
2023-05-06T07:52:21.032Z,44.36
2023-05-06T07:53:20.942Z,44.6
2023-05-06T07:54:21.345Z,44.74
2023-05-06T07:55:21.784Z,44.87
2023-05-06T07:56:22.079Z,44.78
2023-05-06T07:57:22.393Z,42.75
2023-05-06T07:58:22.717Z,42.72
2023-05-06T07:59:23.548Z,42.67
2023-05-06T08:00:23.492Z,41.96
2023-05-06T08:01:23.794Z,43.13
2023-05-06T08:02:24.469Z,41.23
2023-05-06T08:03:24.947Z,39.44
2023-05-06T08:04:24.981Z,39.3
2023-05-06T08:05:25.646Z,39.38
2023-05-06T08:06:25.957Z,39.63
2023-05-06T08:07:26.244Z,40.8
2023-05-06T08:08:26.373Z,41.32
2023-05-06T08:09:26.872Z,40.69
2023-05-06T08:10:27.299Z,40.8
2023-05-06T08:11:27.715Z,42.35
2023-05-06T08:12:28.039Z,39.75
2023-05-06T08:13:28.450Z,37.03
2023-05-06T08:14:28.758Z,36.78
2023-05-06T08:15:29.130Z,37.58
2023-05-06T08:16:29.628Z,35.25
2023-05-06T08:17:30.044Z,35.41
2023-05-06T08:18:30.480Z,35.25
2023-05-06T08:19:30.672Z,35.77
2023-05-06T08:20:31.156Z,36.62
2023-05-06T08:21:31.474Z,36.69
2023-05-06T08:22:31.725Z,37.34
2023-05-06T08:23:32.123Z,36.47
2023-05-06T08:24:32.586Z,36.75
2023-05-06T08:25:33.043Z,38.87
2023-05-06T08:26:33.292Z,36.95
2023-05-06T08:27:33.651Z,38.05
2023-05-06T08:28:34.019Z,39.65
2023-05-06T08:29:34.491Z,39.45
2023-05-06T08:30:34.907Z,38.88
2023-05-06T08:31:35.245Z,39.84
2023-05-06T08:32:35.712Z,37.6
2023-05-06T08:33:35.970Z,37.69
2023-05-06T08:34:36.372Z,38.04
2023-05-06T08:35:36.703Z,38.5
2023-05-06T08:36:37.024Z,37
2023-05-06T08:37:37.525Z,38.31
2023-05-06T08:38:37.688Z,37.06
2023-05-06T08:39:38.239Z,36.39
2023-05-06T08:40:44.135Z,37
2023-05-06T08:41:46.854Z,36.14
2023-05-06T08:42:46.355Z,36.75
2023-05-06T08:43:46.356Z,37.59
2023-05-06T08:44:45.135Z,37.67
2023-05-06T08:45:45.456Z,37.74
2023-05-06T08:46:46.890Z,38.15
2023-05-06T08:47:49.186Z,38.26
2023-05-06T08:48:46.505Z,37.04
2023-05-06T08:49:47.316Z,36.8
2023-05-06T08:50:49.073Z,36.94
2023-05-06T08:51:51.009Z,36.34
2023-05-06T08:52:50.834Z,37.21
2023-05-06T08:53:49.156Z,37.56
2023-05-06T08:54:51.765Z,37.11
2023-05-06T08:55:51.687Z,36.94
2023-05-06T08:56:53.005Z,37.01
2023-05-06T08:57:52.527Z,37.15
2023-05-06T08:58:51.995Z,38.03
2023-05-06T08:59:51.672Z,36.82
2023-05-06T09:00:51.621Z,36.67
2023-05-06T09:01:52.726Z,36.69
2023-05-06T09:02:52.278Z,36.76
2023-05-06T09:03:52.496Z,36.46
2023-05-06T09:04:54.612Z,36.12
2023-05-06T09:05:53.577Z,37.05
2023-05-06T09:06:53.788Z,36.98
2023-05-06T09:07:54.104Z,36.15
2023-05-06T09:08:54.411Z,35.43
2023-05-06T09:09:54.735Z,35.26
2023-05-06T09:10:55.245Z,34.91
2023-05-06T09:11:55.603Z,34.72
2023-05-06T09:12:57.039Z,35.1
2023-05-06T09:14:57.116Z,35.97
2023-05-06T09:15:57.521Z,34.92
2023-05-06T09:16:58.490Z,35.39
2023-05-06T09:17:58.124Z,37.7
2023-05-06T09:18:59.235Z,36.44
2023-05-06T09:19:59.345Z,36.68
2023-05-06T09:21:00.624Z,36.03
2023-05-06T09:21:59.562Z,36.12
2023-05-06T09:23:00.650Z,36.62
2023-05-06T09:24:01.888Z,36.24
2023-05-06T09:25:00.864Z,36.44
2023-05-06T09:26:01.226Z,36.94
2023-05-06T09:27:01.800Z,36.42
2023-05-06T09:28:09.887Z,35.79
2023-05-06T09:29:02.891Z,35.89
2023-05-06T09:31:06.741Z,36.54
2023-05-06T09:32:08.085Z,37.75
2023-05-06T09:33:07.139Z,38.49
2023-05-06T09:34:06.903Z,36.01
2023-05-06T09:35:08.433Z,36.07
2023-05-06T09:36:08.217Z,36.61
2023-05-06T09:37:07.753Z,37.01
2023-05-06T09:38:09.202Z,36.58
2023-05-06T09:39:08.567Z,37.02
2023-05-06T09:40:09.615Z,35.97
2023-05-06T09:41:09.319Z,35.93
2023-05-06T09:42:09.687Z,34.57
2023-05-06T09:43:10.731Z,34.32
2023-05-06T09:44:11.855Z,34.47
2023-05-06T09:45:11.607Z,34.73
2023-05-06T09:46:14.746Z,34.37
2023-05-06T09:47:12.282Z,34.17
2023-05-06T09:48:12.974Z,34.08
2023-05-06T09:49:13.851Z,34.51
2023-05-06T09:50:14.362Z,34.84
2023-05-06T09:51:14.139Z,34.95
2023-05-06T09:52:14.363Z,33.57
2023-05-06T09:53:16.723Z,33.74
2023-05-06T09:54:17.347Z,34.63
2023-05-06T09:55:17.381Z,34.9
2023-05-06T09:56:16.478Z,35.03
2023-05-06T09:57:18.339Z,35.07
2023-05-06T09:58:17.264Z,35.27
2023-05-06T09:59:17.986Z,34.67
2023-05-06T10:00:18.958Z,35.16
2023-05-06T10:01:32.731Z,35.67
2023-05-06T10:02:19.904Z,36.94
2023-05-06T10:03:20.158Z,34.97
2023-05-06T10:04:23.219Z,35.33
2023-05-06T10:05:25.028Z,35.57
2023-05-06T10:06:25.366Z,35.47
2023-05-06T10:07:23.873Z,34.77
2023-05-06T10:08:33.516Z,34.76
2023-05-06T10:09:33.416Z,34.94
2023-05-06T10:10:34.611Z,35.56
2023-05-06T10:11:33.161Z,36.08
2023-05-06T10:12:34.492Z,34.35
2023-05-06T10:13:35.393Z,34.16
2023-05-06T10:14:34.066Z,34.21
2023-05-06T10:15:35.063Z,33.64
2023-05-06T10:16:36.642Z,33.79
2023-05-06T10:17:39.216Z,33.56
2023-05-06T10:18:38.289Z,33.24
2023-05-06T10:19:40.821Z,32.58
2023-05-06T10:20:41.449Z,31.98
2023-05-06T10:21:43.776Z,32.23
2023-05-06T10:30:10.653Z,34.85
2023-05-06T10:31:13.899Z,33.48
2023-05-06T10:32:12.520Z,34.57
2023-05-06T10:33:12.266Z,35.04
2023-05-06T10:34:12.192Z,33.9
2023-05-06T10:37:22.277Z,35.25
2023-05-06T10:39:24.430Z,34.46
2023-05-06T10:40:24.693Z,34.48
2023-05-06T10:41:26.587Z,33.57
2023-05-06T10:42:27.774Z,33.1
2023-05-06T10:45:28.585Z,32.28
2023-05-06T10:46:29.746Z,31.7
2023-05-06T10:48:32.286Z,32.61
2023-05-06T10:49:31.775Z,33.52
2023-05-06T10:50:32.022Z,31.77
2023-05-06T10:51:33.727Z,32.56
2023-05-06T10:55:39.887Z,35.75
2023-05-06T10:57:42.278Z,36.45
2023-05-06T10:59:48.429Z,36.92
2023-05-06T11:02:58.081Z,36.78
2023-05-06T11:03:56.032Z,37.06
2023-05-06T11:05:00.666Z,37.67
2023-05-06T11:05:58.209Z,35.83
2023-05-06T11:08:08.653Z,35.29
2023-05-06T11:09:06.860Z,34.55
2023-05-06T11:10:10.401Z,34.81
2023-05-06T11:12:08.054Z,35.19
2023-05-06T11:19:24.232Z,34.03
2023-05-06T11:20:24.775Z,34.67
2023-05-06T11:21:35.878Z,34.44
2023-05-06T11:25:43.823Z,34.34
2023-05-06T11:26:36.425Z,33.79
2023-05-06T11:27:37.561Z,32.56
2023-05-06T11:28:37.865Z,32.96
2023-05-06T11:29:37.972Z,32.58
2023-05-06T11:30:41.000Z,33.22
2023-05-06T11:31:40.037Z,32.06
2023-05-06T11:32:40.804Z,33.03
2023-05-06T11:33:46.504Z,32.06
2023-05-06T11:34:44.884Z,31.83
2023-05-06T11:35:45.291Z,32.97
2023-05-06T11:37:45.818Z,34.48
2023-05-06T11:38:48.272Z,34.04
2023-05-06T11:39:49.196Z,35.16
2023-05-06T11:40:46.927Z,35.17
2023-05-06T11:41:47.218Z,35.58
2023-05-06T11:42:47.684Z,34.7
2023-05-06T11:43:48.731Z,35.3
2023-05-06T11:44:48.407Z,35.2
2023-05-06T11:45:49.238Z,36.22
2023-05-06T11:46:49.359Z,35.3
2023-05-06T11:47:49.549Z,34.66
2023-05-06T11:48:50.728Z,34.94
2023-05-06T11:50:54.336Z,35.83
2023-05-06T11:51:55.255Z,36.47
2023-05-06T11:52:54.111Z,35.38
2023-05-06T11:54:56.474Z,36.21
2023-05-06T11:55:56.946Z,35.64
2023-05-06T11:56:57.296Z,36.3
2023-05-06T11:57:57.602Z,36.08
2023-05-06T11:58:58.031Z,36.47
2023-05-06T11:59:58.468Z,35.86
2023-05-06T12:01:00.800Z,36.04
2023-05-06T12:02:01.026Z,37.04
2023-05-06T12:02:59.706Z,35.51
2023-05-06T12:03:59.949Z,34.46
2023-05-06T12:05:02.976Z,34.37
2023-05-06T12:06:01.056Z,34.13
2023-05-06T12:07:00.853Z,34.77
2023-05-06T12:08:01.412Z,33.55
2023-05-06T12:09:05.327Z,33.2
2023-05-06T12:10:03.117Z,33.26
2023-05-06T12:11:06.815Z,32.67
2023-05-06T12:12:05.396Z,32.22
2023-05-06T12:13:06.414Z,33.9
2023-05-06T12:14:07.653Z,32.06
2023-05-06T12:15:06.541Z,33.54
2023-05-06T12:16:06.803Z,32.93
2023-05-06T12:17:06.648Z,31.71
2023-05-06T12:18:07.026Z,32.16
2023-05-06T12:19:06.895Z,33.57
2023-05-06T12:20:10.593Z,33.08
2023-05-06T12:21:08.304Z,32.98
2023-05-06T12:23:15.590Z,32.81
2023-05-06T12:24:13.184Z,33.31
2023-05-06T12:25:14.677Z,32.41
2023-05-06T12:26:13.910Z,32.31
2023-05-06T12:27:14.196Z,33.23
2023-05-06T12:28:15.785Z,33.22
2023-05-06T12:29:16.506Z,32.89
2023-05-06T12:30:15.539Z,33.37
2023-05-06T12:31:27.779Z,33.58
2023-05-06T12:32:20.269Z,33.68
2023-05-06T12:33:20.616Z,33.42
2023-05-06T12:35:30.473Z,34.87
2023-05-06T12:36:28.064Z,34.03
2023-05-06T12:37:29.579Z,33.65
2023-05-06T12:38:28.915Z,34.13
2023-05-06T12:39:37.966Z,33.96
2023-05-06T12:40:30.790Z,32.92
2023-05-06T12:42:32.520Z,33.68
2023-05-06T12:43:33.039Z,32.74
2023-05-06T12:44:42.778Z,33.57
2023-05-06T12:45:35.441Z,33.92
2023-05-06T12:46:35.716Z,34.61
2023-05-06T12:47:36.117Z,34.06
2023-05-06T12:48:36.347Z,33.59
2023-05-06T12:50:41.576Z,34.38
2023-05-06T12:51:39.020Z,34.47
2023-05-06T12:52:44.211Z,34.14
2023-05-06T12:53:41.598Z,34.03
2023-05-06T12:54:42.524Z,33.82
2023-05-06T12:55:42.447Z,33.19
2023-05-06T12:56:42.806Z,32.51
2023-05-06T12:57:43.272Z,33.17
2023-05-06T12:58:43.629Z,34.13
2023-05-06T12:59:45.017Z,33.68
2023-05-06T13:00:44.552Z,33.87
2023-05-06T13:01:44.650Z,33.67
2023-05-06T13:02:46.000Z,33.47
2023-05-06T13:03:45.733Z,33.79
2023-05-06T13:04:46.079Z,33.57
2023-05-06T13:05:46.294Z,34.44
2023-05-06T13:06:46.968Z,33.39
2023-05-06T13:07:48.346Z,32.79
2023-05-06T13:08:47.559Z,32.55
2023-05-06T13:09:47.945Z,32.03
2023-05-06T13:10:48.370Z,32.5
2023-05-06T13:11:48.893Z,32.11
2023-05-06T13:12:49.003Z,33.63
2023-05-06T13:13:50.264Z,34.99
2023-05-06T13:14:49.825Z,35.5
2023-05-06T13:15:50.259Z,35.03
2023-05-06T13:16:50.727Z,35.03
2023-05-06T13:17:51.259Z,34.91
2023-05-06T13:18:51.394Z,34.71
2023-05-06T13:19:52.722Z,34.18
2023-05-06T13:20:52.117Z,35.34
2023-05-06T13:21:52.636Z,35.52
2023-05-06T13:22:55.218Z,35.29
2023-05-06T13:23:53.670Z,36.29
2023-05-06T13:24:53.780Z,35.75
2023-05-06T13:26:04.228Z,36.06
2023-05-06T13:26:57.700Z,34.68
2023-05-06T13:27:57.756Z,35.25
2023-05-06T13:28:58.318Z,35.08
2023-05-06T13:29:58.775Z,34.48
2023-05-06T13:30:59.246Z,35.04
2023-05-06T13:31:59.455Z,35.56
2023-05-06T13:32:59.797Z,35.29
2023-05-06T13:34:00.343Z,36.02
2023-05-06T13:35:00.608Z,34.6
2023-05-06T13:36:02.724Z,34.98
2023-05-06T13:37:01.586Z,34.58
2023-05-06T13:38:01.984Z,36.22
2023-05-06T13:39:02.478Z,33.98
2023-05-06T13:40:02.695Z,34.13
2023-05-06T13:41:03.336Z,34.29
2023-05-06T13:42:04.871Z,34.71
2023-05-06T13:43:03.910Z,34.2
2023-05-06T13:44:04.872Z,35.44
2023-05-06T13:45:05.234Z,33.9
2023-05-06T13:46:05.262Z,33.71
2023-05-06T13:47:05.417Z,34.54
2023-05-06T13:48:06.008Z,33.79
2023-05-06T13:49:06.237Z,34.5
2023-05-06T13:50:07.691Z,33.87
2023-05-06T13:51:07.077Z,33.9
2023-05-06T13:52:08.403Z,33.75
2023-05-06T13:53:07.850Z,34.65
2023-05-06T13:54:08.313Z,33.96
2023-05-06T13:55:09.847Z,33.1
2023-05-06T13:56:09.048Z,33.13
2023-05-06T13:57:09.300Z,33.2
2023-05-06T13:58:09.776Z,33.01
2023-05-06T13:59:10.200Z,32.93
2023-05-06T14:00:12.145Z,33.29
2023-05-06T14:01:10.914Z,33.62
2023-05-06T14:02:11.260Z,33.65
2023-05-06T14:03:11.756Z,33.64
2023-05-06T14:04:12.111Z,34.54
2023-05-06T14:05:12.664Z,34.27